NSZ923 EKCH-LFPO
Flight info
| Callsign | NSZ923 |
|---|---|
| Flight time | N/A |
| Altitude | 38000 |
| Route | NEXEN T503 GIMRU DCT MICOS DCT IDOSA DCT TOLVU DCT RAPOR DCT RENSA |
| Aircraft | B38M/M-SDE1FGHILORVWXY/HB1 |
Departure
| Time | 2026-04-25 22:02 |
|---|---|
| Airport | Copenhagen Kastrup Airport (EKCH) |
Arrival
| Time | N/A |
|---|---|
| Airport | Paris-Orly Airport (LFPO) |
| Time | Latitude | Longitude | Altitude | Speed | Heading |
|---|---|---|---|---|---|
| 2026-04-25 21:43 | 55.62510 | 12.65047 | 22 ft | 0 kts | 278° |
| 2026-04-25 21:55 | 55.62509 | 12.65055 | 23 ft | 2 kts | 278° |
| 2026-04-25 21:55 | 55.62507 | 12.65079 | 22 ft | 2 kts | 278° |
| 2026-04-25 21:55 | 55.62505 | 12.65103 | 24 ft | 2 kts | 277° |
| 2026-04-25 21:55 | 55.62504 | 12.65126 | 23 ft | 2 kts | 274° |
| 2026-04-25 21:56 | 55.62503 | 12.65148 | 27 ft | 2 kts | 265° |
| 2026-04-25 21:56 | 55.62504 | 12.65161 | 26 ft | 2 kts | 252° |
| 2026-04-25 21:56 | 55.62514 | 12.65179 | 22 ft | 2 kts | 191° |
| 2026-04-25 21:56 | 55.62525 | 12.65181 | 24 ft | 2 kts | 179° |
| 2026-04-25 21:57 | 55.62527 | 12.65180 | 24 ft | 0 kts | 178° |
| 2026-04-25 21:57 | 55.62524 | 12.65181 | 24 ft | 4 kts | 176° |
| 2026-04-25 21:57 | 55.62429 | 12.65187 | 23 ft | 21 kts | 178° |
| 2026-04-25 21:58 | 55.62264 | 12.65198 | 26 ft | 19 kts | 179° |
| 2026-04-25 21:58 | 55.62137 | 12.65095 | 27 ft | 24 kts | 212° |
| 2026-04-25 21:58 | 55.61975 | 12.64909 | 22 ft | 31 kts | 213° |
| 2026-04-25 21:58 | 55.61786 | 12.64695 | 22 ft | 33 kts | 213° |
| 2026-04-25 21:59 | 55.61590 | 12.64468 | 22 ft | 35 kts | 213° |
| 2026-04-25 21:59 | 55.61386 | 12.64236 | 20 ft | 29 kts | 214° |
| 2026-04-25 21:59 | 55.61214 | 12.64035 | 18 ft | 31 kts | 213° |
| 2026-04-25 22:00 | 55.60861 | 12.63629 | 27 ft | 26 kts | 211° |
| 2026-04-25 22:00 | 55.60742 | 12.63676 | 27 ft | 16 kts | 130° |
| 2026-04-25 22:00 | 55.60731 | 12.63699 | 27 ft | 0 kts | 129° |
| 2026-04-25 22:00 | 55.60730 | 12.63703 | 27 ft | 2 kts | 129° |
| 2026-04-25 22:01 | 55.60702 | 12.63771 | 27 ft | 14 kts | 121° |
| 2026-04-25 22:01 | 55.60736 | 12.63978 | 29 ft | 24 kts | 38° |
| 2026-04-25 22:01 | 55.61070 | 12.64483 | 22 ft | 110 kts | 41° |
| 2026-04-25 22:01 | 55.61550 | 12.65220 | 23 ft | 164 kts | 41° |
| 2026-04-25 22:02 | 55.62949 | 12.67394 | 539 ft | 226 kts | 39° |
| 2026-04-25 22:02 | 55.64180 | 12.69312 | 949 ft | 238 kts | 37° |
| 2026-04-25 22:02 | 55.65433 | 12.71223 | 1577 ft | 236 kts | 36° |
| 2026-04-25 22:02 | 55.66463 | 12.73487 | 2163 ft | 243 kts | 60° |
| 2026-04-25 22:03 | 55.66731 | 12.76484 | 2784 ft | 256 kts | 90° |
| 2026-04-25 22:03 | 55.66105 | 12.79509 | 3428 ft | 274 kts | 120° |
| 2026-04-25 22:03 | 55.64654 | 12.81903 | 4139 ft | 300 kts | 148° |
| 2026-04-25 22:03 | 55.62633 | 12.83213 | 4870 ft | 320 kts | 166° |
| 2026-04-25 22:04 | 55.60388 | 12.84099 | 5578 ft | 341 kts | 167° |
| 2026-04-25 22:04 | 55.58010 | 12.85035 | 6289 ft | 357 kts | 167° |
| 2026-04-25 22:04 | 55.55559 | 12.86018 | 6972 ft | 366 kts | 167° |
| 2026-04-25 22:04 | 55.53054 | 12.87030 | 7641 ft | 373 kts | 167° |
| 2026-04-25 22:05 | 55.50505 | 12.87574 | 8323 ft | 377 kts | 186° |
| 2026-04-25 22:05 | 55.48008 | 12.86305 | 9035 ft | 375 kts | 213° |
| 2026-04-25 22:05 | 55.46046 | 12.83387 | 9779 ft | 368 kts | 237° |
| 2026-04-25 22:05 | 55.44694 | 12.79587 | 10448 ft | 370 kts | 244° |
| 2026-04-25 22:06 | 55.43109 | 12.75929 | 11111 ft | 381 kts | 237° |